Beechhurst, New York
Current Conditions -  °F | °C
As of 11:51 AM on Sunday 23 Nov 2014 (Local Time) from KLGA Reporting Station
Broken Clouds Broken Clouds  
Wind Chill: 52°   Ceiling: 18000
Heat Index: 52°   Visibility: 10mi
Dew Point: 25°   Wind: 5mph
Humidity: 35%   Direction: 230°SW
Pressure: 30.15"   Gusts: NA
Location:  40.7862°N, 73.811°W
Report Text: KLGA 231651Z 23004KT 10SM FEW060 SCT090 SCT110 BKN180 BKN250 11/M04 A3015 RMK AO2 SLP209 T01111039
Loading
Personal Weather Stations






























Interactive Weather Map New forecast layout! Learn more

10-Day Weather Forecast

Advertisements
Track Severe Weather on mobile